sensor_id;sensor_type;location;lat;lon;timestamp;pressure;altitude;pressure_sealevel;temperature;humidity
34081;BME280;20358;50.272;19.026;2023-09-07T00:01:19;99101.44;;;19.76;57.01
34081;BME280;20358;50.272;19.026;2023-09-07T00:04:26;99106.00;;;19.74;57.27
34081;BME280;20358;50.272;19.026;2023-09-07T00:07:32;99104.56;;;19.70;57.21
34081;BME280;20358;50.272;19.026;2023-09-07T00:10:39;99097.78;;;19.66;57.58
34081;BME280;20358;50.272;19.026;2023-09-07T00:13:47;99106.91;;;19.62;57.66
34081;BME280;20358;50.272;19.026;2023-09-07T00:16:54;99111.63;;;19.58;58.01
34081;BME280;20358;50.272;19.026;2023-09-07T00:20:00;99106.63;;;19.54;58.13
34081;BME280;20358;50.272;19.026;2023-09-07T00:23:12;99114.22;;;19.47;58.19
34081;BME280;20358;50.272;19.026;2023-09-07T00:26:18;99115.28;;;19.45;58.40
34081;BME280;20358;50.272;19.026;2023-09-07T00:29:27;99110.19;;;19.42;58.66
34081;BME280;20358;50.272;19.026;2023-09-07T00:32:36;99106.06;;;19.38;58.67
34081;BME280;20358;50.272;19.026;2023-09-07T00:35:43;99100.97;;;19.35;58.76
34081;BME280;20358;50.272;19.026;2023-09-07T00:38:49;99108.94;;;19.35;58.99
34081;BME280;20358;50.272;19.026;2023-09-07T00:41:56;99101.91;;;19.34;58.95
34081;BME280;20358;50.272;19.026;2023-09-07T00:45:05;99091.31;;;19.34;58.91
34081;BME280;20358;50.272;19.026;2023-09-07T00:48:13;99103.84;;;19.32;58.79
34081;BME280;20358;50.272;19.026;2023-09-07T00:51:21;99102.34;;;19.28;59.12
34081;BME280;20358;50.272;19.026;2023-09-07T00:54:28;99101.75;;;19.24;59.32
34081;BME280;20358;50.272;19.026;2023-09-07T00:57:34;99100.16;;;19.22;59.29
34081;BME280;20358;50.272;19.026;2023-09-07T01:00:45;99100.47;;;19.17;59.38
34081;BME280;20358;50.272;19.026;2023-09-07T01:03:51;99102.31;;;19.16;59.27
34081;BME280;20358;50.272;19.026;2023-09-07T01:07:11;99094.78;;;19.10;59.61
34081;BME280;20358;50.272;19.026;2023-09-07T01:10:22;99101.03;;;19.09;59.57
34081;BME280;20358;50.272;19.026;2023-09-07T01:13:29;99102.94;;;19.07;59.62
34081;BME280;20358;50.272;19.026;2023-09-07T01:16:37;99103.28;;;19.03;59.73
34081;BME280;20358;50.272;19.026;2023-09-07T01:19:47;99108.16;;;18.96;59.55
34081;BME280;20358;50.272;19.026;2023-09-07T01:22:58;99112.94;;;18.91;59.87
34081;BME280;20358;50.272;19.026;2023-09-07T01:26:08;99106.91;;;18.89;59.89
34081;BME280;20358;50.272;19.026;2023-09-07T01:29:15;99107.88;;;18.88;59.79
34081;BME280;20358;50.272;19.026;2023-09-07T01:32:23;99104.16;;;18.78;59.84
34081;BME280;20358;50.272;19.026;2023-09-07T01:35:31;99109.59;;;18.77;59.86
34081;BME280;20358;50.272;19.026;2023-09-07T01:38:43;99104.41;;;18.75;60.00
34081;BME280;20358;50.272;19.026;2023-09-07T01:41:49;99102.50;;;18.77;59.86
34081;BME280;20358;50.272;19.026;2023-09-07T01:44:56;99104.16;;;18.78;60.04
34081;BME280;20358;50.272;19.026;2023-09-07T01:48:02;99095.91;;;18.83;59.59
34081;BME280;20358;50.272;19.026;2023-09-07T01:51:09;99093.03;;;18.86;59.54
34081;BME280;20358;50.272;19.026;2023-09-07T01:54:21;99094.66;;;18.88;59.48
34081;BME280;20358;50.272;19.026;2023-09-07T01:57:29;99099.09;;;18.88;59.29
34081;BME280;20358;50.272;19.026;2023-09-07T02:00:36;99094.84;;;18.85;59.54
34081;BME280;20358;50.272;19.026;2023-09-07T02:03:44;99092.19;;;18.85;59.59
34081;BME280;20358;50.272;19.026;2023-09-07T02:06:49;99094.22;;;18.82;59.59
34081;BME280;20358;50.272;19.026;2023-09-07T02:09:59;99106.09;;;18.76;59.64
34081;BME280;20358;50.272;19.026;2023-09-07T02:13:05;99102.19;;;18.69;60.18
34081;BME280;20358;50.272;19.026;2023-09-07T02:16:13;99103.34;;;18.65;60.19
34081;BME280;20358;50.272;19.026;2023-09-07T02:19:20;99101.13;;;18.59;60.38
34081;BME280;20358;50.272;19.026;2023-09-07T02:22:27;99097.00;;;18.55;60.31
34081;BME280;20358;50.272;19.026;2023-09-07T02:25:35;99095.59;;;18.49;60.75
34081;BME280;20358;50.272;19.026;2023-09-07T02:28:42;99094.22;;;18.44;60.90
34081;BME280;20358;50.272;19.026;2023-09-07T02:31:48;99105.03;;;18.41;60.98
34081;BME280;20358;50.272;19.026;2023-09-07T02:34:57;99090.09;;;18.40;60.89
34081;BME280;20358;50.272;19.026;2023-09-07T02:38:03;99091.06;;;18.39;60.74
34081;BME280;20358;50.272;19.026;2023-09-07T02:41:12;99079.69;;;18.37;61.00
34081;BME280;20358;50.272;19.026;2023-09-07T02:44:18;99085.13;;;18.35;60.82
34081;BME280;20358;50.272;19.026;2023-09-07T02:47:25;99091.25;;;18.36;61.03
34081;BME280;20358;50.272;19.026;2023-09-07T02:50:33;99085.97;;;18.36;60.94
34081;BME280;20358;50.272;19.026;2023-09-07T02:53:40;99088.63;;;18.36;60.83
34081;BME280;20358;50.272;19.026;2023-09-07T02:56:49;99092.94;;;18.37;60.91
34081;BME280;20358;50.272;19.026;2023-09-07T02:59:56;99094.66;;;18.38;60.87
34081;BME280;20358;50.272;19.026;2023-09-07T03:03:02;99098.22;;;18.37;60.93
34081;BME280;20358;50.272;19.026;2023-09-07T03:06:10;99096.56;;;18.36;61.19
34081;BME280;20358;50.272;19.026;2023-09-07T03:09:21;99093.06;;;18.35;60.89
34081;BME280;20358;50.272;19.026;2023-09-07T03:12:31;99092.31;;;18.33;61.14
34081;BME280;20358;50.272;19.026;2023-09-07T03:15:37;99093.38;;;18.31;61.20
34081;BME280;20358;50.272;19.026;2023-09-07T03:18:47;99089.16;;;18.28;61.28
34081;BME280;20358;50.272;19.026;2023-09-07T03:21:53;99090.19;;;18.26;61.36
34081;BME280;20358;50.272;19.026;2023-09-07T03:25:02;99092.09;;;18.24;61.65
34081;BME280;20358;50.272;19.026;2023-09-07T03:28:12;99099.28;;;18.22;61.67
34081;BME280;20358;50.272;19.026;2023-09-07T03:31:21;99088.91;;;18.19;61.68
34081;BME280;20358;50.272;19.026;2023-09-07T03:34:28;99097.81;;;18.18;61.86
34081;BME280;20358;50.272;19.026;2023-09-07T03:37:36;99086.16;;;18.08;61.92
34081;BME280;20358;50.272;19.026;2023-09-07T03:40:42;99092.28;;;18.08;62.16
34081;BME280;20358;50.272;19.026;2023-09-07T03:43:51;99090.69;;;18.06;62.15
34081;BME280;20358;50.272;19.026;2023-09-07T03:46:57;99096.94;;;18.05;62.41
34081;BME280;20358;50.272;19.026;2023-09-07T03:50:05;99094.38;;;18.03;62.24
34081;BME280;20358;50.272;19.026;2023-09-07T03:53:12;99093.56;;;18.03;62.32
34081;BME280;20358;50.272;19.026;2023-09-07T03:56:19;99094.72;;;17.98;62.59
34081;BME280;20358;50.272;19.026;2023-09-07T03:59:30;99095.88;;;17.94;62.66
34081;BME280;20358;50.272;19.026;2023-09-07T04:02:37;99109.84;;;17.96;62.96
34081;BME280;20358;50.272;19.026;2023-09-07T04:05:44;99106.47;;;17.94;62.86
34081;BME280;20358;50.272;19.026;2023-09-07T04:08:51;99109.09;;;17.94;63.08
34081;BME280;20358;50.272;19.026;2023-09-07T04:11:56;99118.72;;;17.95;62.89
34081;BME280;20358;50.272;19.026;2023-09-07T04:15:07;99114.28;;;17.96;63.06
34081;BME280;20358;50.272;19.026;2023-09-07T04:18:15;99116.81;;;17.97;62.97
34081;BME280;20358;50.272;19.026;2023-09-07T04:21:22;99121.91;;;18.01;62.77
34081;BME280;20358;50.272;19.026;2023-09-07T04:24:28;99120.03;;;18.03;62.81
34081;BME280;20358;50.272;19.026;2023-09-07T04:27:34;99114.72;;;18.03;62.72
34081;BME280;20358;50.272;19.026;2023-09-07T04:30:44;99119.91;;;18.04;62.75
34081;BME280;20358;50.272;19.026;2023-09-07T04:33:51;99126.78;;;18.07;62.91
34081;BME280;20358;50.272;19.026;2023-09-07T04:36:56;99131.88;;;18.10;62.59
34081;BME280;20358;50.272;19.026;2023-09-07T04:40:06;99107.75;;;18.02;62.48
34081;BME280;20358;50.272;19.026;2023-09-07T04:43:13;99129.78;;;18.15;62.62
34081;BME280;20358;50.272;19.026;2023-09-07T04:46:23;99125.97;;;18.19;62.60
34081;BME280;20358;50.272;19.026;2023-09-07T04:49:29;99115.38;;;18.19;62.47
34081;BME280;20358;50.272;19.026;2023-09-07T04:52:37;99122.16;;;18.23;62.21
34081;BME280;20358;50.272;19.026;2023-09-07T04:55:44;99124.81;;;18.23;62.31
34081;BME280;20358;50.272;19.026;2023-09-07T04:58:50;99129.38;;;18.21;62.53
34081;BME280;20358;50.272;19.026;2023-09-07T05:02:01;99121.50;;;18.19;62.56
34081;BME280;20358;50.272;19.026;2023-09-07T05:05:08;99131.06;;;18.22;62.53
34081;BME280;20358;50.272;19.026;2023-09-07T05:08:14;99129.06;;;18.25;62.58
34081;BME280;20358;50.272;19.026;2023-09-07T05:11:24;99127.03;;;18.29;62.64
34081;BME280;20358;50.272;19.026;2023-09-07T05:14:30;99127.47;;;18.35;62.70
34081;BME280;20358;50.272;19.026;2023-09-07T05:17:42;99136.38;;;18.47;62.33
34081;BME280;20358;50.272;19.026;2023-09-07T05:20:49;99132.19;;;18.57;62.12
34081;BME280;20358;50.272;19.026;2023-09-07T05:23:56;99132.38;;;18.67;61.94
34081;BME280;20358;50.272;19.026;2023-09-07T05:27:02;99130.06;;;18.75;61.91
34081;BME280;20358;50.272;19.026;2023-09-07T05:30:10;99129.19;;;18.87;61.36
34081;BME280;20358;50.272;19.026;2023-09-07T05:33:19;99135.53;;;18.97;61.25
34081;BME280;20358;50.272;19.026;2023-09-07T05:36:26;99135.31;;;19.00;60.99
34081;BME280;20358;50.272;19.026;2023-09-07T05:39:33;99141.03;;;19.06;61.07
34081;BME280;20358;50.272;19.026;2023-09-07T05:42:39;99133.34;;;19.14;60.88
34081;BME280;20358;50.272;19.026;2023-09-07T05:45:45;99140.31;;;19.28;60.71
34081;BME280;20358;50.272;19.026;2023-09-07T05:48:55;99140.53;;;19.38;60.49
34081;BME280;20358;50.272;19.026;2023-09-07T05:52:02;99148.56;;;19.49;60.33
34081;BME280;20358;50.272;19.026;2023-09-07T05:55:12;99148.34;;;19.52;59.82
34081;BME280;20358;50.272;19.026;2023-09-07T05:58:18;99150.28;;;19.50;59.29
34081;BME280;20358;50.272;19.026;2023-09-07T06:01:25;99151.50;;;19.57;59.67
34081;BME280;20358;50.272;19.026;2023-09-07T06:04:34;99158.56;;;19.69;59.58
34081;BME280;20358;50.272;19.026;2023-09-07T06:07:40;99152.38;;;19.81;59.58
34081;BME280;20358;50.272;19.026;2023-09-07T06:10:48;99158.34;;;19.96;59.53
34081;BME280;20358;50.272;19.026;2023-09-07T06:13:55;99159.25;;;20.07;59.54
34081;BME280;20358;50.272;19.026;2023-09-07T06:17:01;99165.78;;;20.14;58.89
34081;BME280;20358;50.272;19.026;2023-09-07T06:20:12;99164.56;;;20.18;58.47
34081;BME280;20358;50.272;19.026;2023-09-07T06:23:18;99165.84;;;20.25;58.41
34081;BME280;20358;50.272;19.026;2023-09-07T06:26:26;99173.84;;;20.36;57.98
34081;BME280;20358;50.272;19.026;2023-09-07T06:29:32;99165.28;;;20.44;57.34
34081;BME280;20358;50.272;19.026;2023-09-07T06:32:40;99174.38;;;20.53;56.82
34081;BME280;20358;50.272;19.026;2023-09-07T06:35:49;99182.59;;;20.61;56.69
34081;BME280;20358;50.272;19.026;2023-09-07T06:38:56;99179.13;;;20.71;56.62
34081;BME280;20358;50.272;19.026;2023-09-07T06:42:02;99180.94;;;20.82;56.57
34081;BME280;20358;50.272;19.026;2023-09-07T06:45:17;99181.69;;;20.95;56.19
34081;BME280;20358;50.272;19.026;2023-09-07T06:48:24;99191.38;;;21.07;56.05
34081;BME280;20358;50.272;19.026;2023-09-07T06:51:34;99192.72;;;21.24;55.99
34081;BME280;20358;50.272;19.026;2023-09-07T06:54:40;99184.22;;;21.41;55.80
34081;BME280;20358;50.272;19.026;2023-09-07T06:57:48;99188.22;;;21.57;55.44
34081;BME280;20358;50.272;19.026;2023-09-07T07:00:57;99186.00;;;21.74;54.70
34081;BME280;20358;50.272;19.026;2023-09-07T07:04:04;99185.59;;;21.89;54.20
34081;BME280;20358;50.272;19.026;2023-09-07T07:07:17;99182.78;;;22.02;53.48
34081;BME280;20358;50.272;19.026;2023-09-07T07:10:24;99184.19;;;22.17;53.08
34081;BME280;20358;50.272;19.026;2023-09-07T07:13:30;99191.03;;;22.31;52.53
34081;BME280;20358;50.272;19.026;2023-09-07T07:16:37;99188.19;;;22.43;51.84
34081;BME280;20358;50.272;19.026;2023-09-07T07:19:43;99188.94;;;22.55;51.61
34081;BME280;20358;50.272;19.026;2023-09-07T07:22:53;99185.41;;;22.65;51.61
34081;BME280;20358;50.272;19.026;2023-09-07T07:25:59;99194.28;;;22.75;50.98
34081;BME280;20358;50.272;19.026;2023-09-07T07:29:06;99190.84;;;22.84;50.93
34081;BME280;20358;50.272;19.026;2023-09-07T07:32:12;99194.28;;;22.96;50.24
34081;BME280;20358;50.272;19.026;2023-09-07T07:35:19;99187.31;;;23.05;50.33
34081;BME280;20358;50.272;19.026;2023-09-07T07:38:28;99196.91;;;23.17;50.24
34081;BME280;20358;50.272;19.026;2023-09-07T07:41:35;99187.84;;;23.29;50.14
34081;BME280;20358;50.272;19.026;2023-09-07T07:44:44;99185.94;;;23.40;49.54
34081;BME280;20358;50.272;19.026;2023-09-07T07:47:52;99190.59;;;23.48;49.36
34081;BME280;20358;50.272;19.026;2023-09-07T07:51:03;99180.78;;;23.58;49.30
34081;BME280;20358;50.272;19.026;2023-09-07T07:54:17;99187.00;;;23.68;48.59
34081;BME280;20358;50.272;19.026;2023-09-07T07:57:25;99193.22;;;23.78;48.04
34081;BME280;20358;50.272;19.026;2023-09-07T08:00:32;99197.72;;;23.87;47.94
34081;BME280;20358;50.272;19.026;2023-09-07T08:03:38;99194.50;;;23.93;47.75
34081;BME280;20358;50.272;19.026;2023-09-07T08:06:45;99200.00;;;24.01;47.82
34081;BME280;20358;50.272;19.026;2023-09-07T08:09:53;99197.19;;;24.13;47.99
34081;BME280;20358;50.272;19.026;2023-09-07T08:13:00;99196.38;;;24.22;47.80
34081;BME280;20358;50.272;19.026;2023-09-07T08:16:07;99201.16;;;24.28;47.37
34081;BME280;20358;50.272;19.026;2023-09-07T08:19:17;99195.38;;;24.32;47.51
34081;BME280;20358;50.272;19.026;2023-09-07T08:22:23;99197.78;;;24.35;47.27
34081;BME280;20358;50.272;19.026;2023-09-07T08:25:34;99204.53;;;24.39;47.50
34081;BME280;20358;50.272;19.026;2023-09-07T08:28:41;99201.97;;;24.47;48.00
34081;BME280;20358;50.272;19.026;2023-09-07T08:31:50;99199.56;;;24.54;47.59
34081;BME280;20358;50.272;19.026;2023-09-07T08:35:00;99203.38;;;24.61;47.48
34081;BME280;20358;50.272;19.026;2023-09-07T08:38:10;99198.84;;;24.71;47.57
34081;BME280;20358;50.272;19.026;2023-09-07T08:41:20;99198.00;;;24.80;47.41
34081;BME280;20358;50.272;19.026;2023-09-07T08:44:29;99197.44;;;24.86;46.88
34081;BME280;20358;50.272;19.026;2023-09-07T08:47:37;99198.53;;;24.93;47.00
34081;BME280;20358;50.272;19.026;2023-09-07T08:50:45;99201.63;;;24.98;46.31
34081;BME280;20358;50.272;19.026;2023-09-07T08:53:55;99188.97;;;24.91;46.28
34081;BME280;20358;50.272;19.026;2023-09-07T08:57:06;99189.50;;;25.04;46.47
34081;BME280;20358;50.272;19.026;2023-09-07T09:00:14;99198.78;;;25.09;45.85
34081;BME280;20358;50.272;19.026;2023-09-07T09:03:23;99191.84;;;25.16;45.88
34081;BME280;20358;50.272;19.026;2023-09-07T09:06:30;99192.53;;;25.28;45.56
34081;BME280;20358;50.272;19.026;2023-09-07T09:09:37;99195.84;;;25.40;44.97
34081;BME280;20358;50.272;19.026;2023-09-07T09:12:49;99196.69;;;25.50;44.28
34081;BME280;20358;50.272;19.026;2023-09-07T09:15:55;99194.41;;;25.55;43.94
34081;BME280;20358;50.272;19.026;2023-09-07T09:19:01;99192.13;;;25.60;43.73
34081;BME280;20358;50.272;19.026;2023-09-07T09:22:08;99191.06;;;25.70;43.74
34081;BME280;20358;50.272;19.026;2023-09-07T09:25:15;99196.50;;;25.78;43.55
34081;BME280;20358;50.272;19.026;2023-09-07T09:28:25;99187.72;;;25.86;43.28
34081;BME280;20358;50.272;19.026;2023-09-07T09:31:34;99187.09;;;25.92;43.10
34081;BME280;20358;50.272;19.026;2023-09-07T09:34:44;99193.56;;;25.99;43.15
34081;BME280;20358;50.272;19.026;2023-09-07T09:37:50;99193.78;;;26.06;42.57
34081;BME280;20358;50.272;19.026;2023-09-07T09:40:57;99188.66;;;26.12;42.47
34081;BME280;20358;50.272;19.026;2023-09-07T09:44:06;99185.84;;;26.14;42.04
34081;BME280;20358;50.272;19.026;2023-09-07T09:47:15;99182.88;;;26.17;42.13
34081;BME280;20358;50.272;19.026;2023-09-07T09:50:23;99188.75;;;26.20;41.95
34081;BME280;20358;50.272;19.026;2023-09-07T09:53:30;99192.97;;;26.23;41.74
34081;BME280;20358;50.272;19.026;2023-09-07T09:56:37;99188.31;;;26.25;42.84
34081;BME280;20358;50.272;19.026;2023-09-07T09:59:47;99186.81;;;26.30;41.40
34081;BME280;20358;50.272;19.026;2023-09-07T10:03:00;99193.59;;;26.34;41.43
34081;BME280;20358;50.272;19.026;2023-09-07T10:06:10;99189.59;;;26.38;41.56
34081;BME280;20358;50.272;19.026;2023-09-07T10:09:17;99190.97;;;26.42;41.93
34081;BME280;20358;50.272;19.026;2023-09-07T10:12:27;99188.97;;;26.44;41.68
34081;BME280;20358;50.272;19.026;2023-09-07T10:15:36;99192.03;;;26.49;41.76
34081;BME280;20358;50.272;19.026;2023-09-07T10:18:43;99194.53;;;26.51;41.79
34081;BME280;20358;50.272;19.026;2023-09-07T10:21:54;99193.41;;;26.54;41.61
34081;BME280;20358;50.272;19.026;2023-09-07T10:25:04;99187.72;;;26.57;41.43
34081;BME280;20358;50.272;19.026;2023-09-07T10:47:19;99182.88;;;26.78;40.85
34081;BME280;20358;50.272;19.026;2023-09-07T10:50:47;99171.16;;;26.79;40.74
34081;BME280;20358;50.272;19.026;2023-09-07T10:54:16;99165.50;;;26.82;40.92
34081;BME280;20358;50.272;19.026;2023-09-07T10:57:58;99171.66;;;26.82;41.33
34081;BME280;20358;50.272;19.026;2023-09-07T11:01:23;99163.16;;;26.87;41.29
34081;BME280;20358;50.272;19.026;2023-09-07T11:04:36;99175.13;;;26.92;40.88
34081;BME280;20358;50.272;19.026;2023-09-07T11:07:49;99160.53;;;26.95;40.75
34081;BME280;20358;50.272;19.026;2023-09-07T11:11:09;99165.25;;;27.01;41.14
34081;BME280;20358;50.272;19.026;2023-09-07T11:14:39;99164.94;;;27.04;40.57
34081;BME280;20358;50.272;19.026;2023-09-07T11:17:51;99170.00;;;27.07;40.91
34081;BME280;20358;50.272;19.026;2023-09-07T11:21:15;99175.53;;;27.14;40.58
34081;BME280;20358;50.272;19.026;2023-09-07T11:24:32;99156.41;;;27.08;40.31
34081;BME280;20358;50.272;19.026;2023-09-07T11:28:07;99132.41;;;27.07;39.98
34081;BME280;20358;50.272;19.026;2023-09-07T11:31:30;99171.03;;;27.14;39.73
34081;BME280;20358;50.272;19.026;2023-09-07T11:34:48;99167.34;;;27.15;39.67
34081;BME280;20358;50.272;19.026;2023-09-07T11:38:03;99161.66;;;27.18;39.33
34081;BME280;20358;50.272;19.026;2023-09-07T11:41:25;99165.03;;;27.20;38.93
34081;BME280;20358;50.272;19.026;2023-09-07T11:44:37;99157.66;;;27.22;39.03
34081;BME280;20358;50.272;19.026;2023-09-07T11:48:17;99156.34;;;27.26;39.42
34081;BME280;20358;50.272;19.026;2023-09-07T11:51:29;99140.91;;;27.28;39.15
34081;BME280;20358;50.272;19.026;2023-09-07T11:54:41;99137.88;;;27.31;39.33
34081;BME280;20358;50.272;19.026;2023-09-07T11:57:53;99145.59;;;27.34;39.26
34081;BME280;20358;50.272;19.026;2023-09-07T12:01:14;99143.63;;;27.36;39.16
34081;BME280;20358;50.272;19.026;2023-09-07T12:04:30;99142.31;;;27.40;39.08
34081;BME280;20358;50.272;19.026;2023-09-07T12:07:57;99148.03;;;27.45;39.50
34081;BME280;20358;50.272;19.026;2023-09-07T12:11:06;99142.34;;;27.48;38.94
34081;BME280;20358;50.272;19.026;2023-09-07T12:14:21;99149.06;;;27.52;38.51
34081;BME280;20358;50.272;19.026;2023-09-07T12:17:31;99139.47;;;27.50;38.56
34081;BME280;20358;50.272;19.026;2023-09-07T12:21:08;99141.53;;;27.56;38.48
34081;BME280;20358;50.272;19.026;2023-09-07T12:24:24;99127.56;;;27.52;38.75
34081;BME280;20358;50.272;19.026;2023-09-07T12:27:38;99124.72;;;27.54;38.83
34081;BME280;20358;50.272;19.026;2023-09-07T12:30:57;99128.63;;;27.59;38.82
34081;BME280;20358;50.272;19.026;2023-09-07T12:38:03;99122.59;;;27.74;38.40
34081;BME280;20358;50.272;19.026;2023-09-07T12:41:22;99114.19;;;27.77;39.22
34081;BME280;20358;50.272;19.026;2023-09-07T12:44:36;99114.72;;;27.80;38.58
34081;BME280;20358;50.272;19.026;2023-09-07T12:47:48;99121.44;;;27.84;38.75
34081;BME280;20358;50.272;19.026;2023-09-07T12:51:10;99113.56;;;27.91;38.58
34081;BME280;20358;50.272;19.026;2023-09-07T12:54:29;99121.63;;;27.91;37.97
34081;BME280;20358;50.272;19.026;2023-09-07T12:57:38;99123.97;;;27.86;38.22
34081;BME280;20358;50.272;19.026;2023-09-07T13:01:04;99112.03;;;27.80;38.89
34081;BME280;20358;50.272;19.026;2023-09-07T13:04:22;99115.88;;;27.78;38.49
34081;BME280;20358;50.272;19.026;2023-09-07T13:07:47;99103.44;;;27.77;39.18
34081;BME280;20358;50.272;19.026;2023-09-07T13:11:08;99103.63;;;27.83;38.86
34081;BME280;20358;50.272;19.026;2023-09-07T13:14:29;99104.13;;;27.87;38.50
34081;BME280;20358;50.272;19.026;2023-09-07T13:17:42;99111.88;;;27.90;38.39
34081;BME280;20358;50.272;19.026;2023-09-07T13:21:08;99104.47;;;27.92;38.32
34081;BME280;20358;50.272;19.026;2023-09-07T13:28:25;99100.44;;;27.88;38.11
34081;BME280;20358;50.272;19.026;2023-09-07T13:32:00;99096.72;;;27.89;38.11
34081;BME280;20358;50.272;19.026;2023-09-07T13:35:21;99095.56;;;27.91;38.40
34081;BME280;20358;50.272;19.026;2023-09-07T13:38:39;99096.72;;;27.89;37.00
34081;BME280;20358;50.272;19.026;2023-09-07T13:42:00;99087.34;;;27.93;37.64
34081;BME280;20358;50.272;19.026;2023-09-07T13:45:19;99095.75;;;27.98;37.79
34081;BME280;20358;50.272;19.026;2023-09-07T13:48:51;99088.06;;;28.03;37.90
34081;BME280;20358;50.272;19.026;2023-09-07T13:52:05;99085.69;;;28.08;37.79
34081;BME280;20358;50.272;19.026;2023-09-07T13:55:38;99095.56;;;27.99;37.44
34081;BME280;20358;50.272;19.026;2023-09-07T13:58:51;99093.25;;;27.96;37.48
34081;BME280;20358;50.272;19.026;2023-09-07T14:02:24;99090.69;;;27.95;37.15
34081;BME280;20358;50.272;19.026;2023-09-07T14:05:36;99088.00;;;27.95;37.45
34081;BME280;20358;50.272;19.026;2023-09-07T14:09:13;99082.31;;;27.98;37.47
34081;BME280;20358;50.272;19.026;2023-09-07T14:12:28;99086.34;;;28.02;37.66
34081;BME280;20358;50.272;19.026;2023-09-07T14:15:46;99077.81;;;28.06;37.83
34081;BME280;20358;50.272;19.026;2023-09-07T14:18:56;99081.31;;;28.15;38.22
34081;BME280;20358;50.272;19.026;2023-09-07T14:22:02;99080.31;;;28.16;36.90
34081;BME280;20358;50.272;19.026;2023-09-07T14:25:13;99077.63;;;28.24;37.43
34081;BME280;20358;50.272;19.026;2023-09-07T14:28:20;99079.66;;;28.14;36.52
34081;BME280;20358;50.272;19.026;2023-09-07T14:31:29;99079.47;;;28.07;36.51
34081;BME280;20358;50.272;19.026;2023-09-07T14:34:39;99068.06;;;28.05;36.93
34081;BME280;20358;50.272;19.026;2023-09-07T14:37:46;99072.25;;;28.08;36.85
34081;BME280;20358;50.272;19.026;2023-09-07T14:40:53;99068.06;;;28.13;37.37
34081;BME280;20358;50.272;19.026;2023-09-07T14:44:02;99057.44;;;28.20;37.00
34081;BME280;20358;50.272;19.026;2023-09-07T14:47:09;99073.25;;;28.23;36.88
34081;BME280;20358;50.272;19.026;2023-09-07T14:50:20;99062.00;;;28.19;36.99
34081;BME280;20358;50.272;19.026;2023-09-07T14:53:26;99069.91;;;28.21;36.88
34081;BME280;20358;50.272;19.026;2023-09-07T14:56:36;99067.38;;;28.19;37.01
34081;BME280;20358;50.272;19.026;2023-09-07T14:59:45;99064.84;;;28.18;37.20
34081;BME280;20358;50.272;19.026;2023-09-07T15:02:56;99063.19;;;28.17;37.44
34081;BME280;20358;50.272;19.026;2023-09-07T15:06:08;99058.81;;;28.24;37.62
34081;BME280;20358;50.272;19.026;2023-09-07T15:09:15;99058.78;;;28.32;37.36
34081;BME280;20358;50.272;19.026;2023-09-07T15:12:21;99058.63;;;28.34;36.85
34081;BME280;20358;50.272;19.026;2023-09-07T15:15:30;99065.16;;;28.31;36.88
34081;BME280;20358;50.272;19.026;2023-09-07T15:18:40;99057.44;;;28.28;36.91
34081;BME280;20358;50.272;19.026;2023-09-07T15:21:50;99059.78;;;28.31;37.11
34081;BME280;20358;50.272;19.026;2023-09-07T15:24:57;99052.91;;;28.37;36.82
34081;BME280;20358;50.272;19.026;2023-09-07T15:31:48;99055.72;;;28.43;36.98
34081;BME280;20358;50.272;19.026;2023-09-07T15:34:58;99065.81;;;28.41;36.74
34081;BME280;20358;50.272;19.026;2023-09-07T15:38:07;99059.78;;;28.31;36.72
34081;BME280;20358;50.272;19.026;2023-09-07T15:41:14;99058.63;;;28.17;36.87
34081;BME280;20358;50.272;19.026;2023-09-07T15:44:20;99058.16;;;28.14;37.23
34081;BME280;20358;50.272;19.026;2023-09-07T15:47:27;99056.78;;;28.10;36.92
34081;BME280;20358;50.272;19.026;2023-09-07T15:50:34;99054.44;;;28.07;37.05
34081;BME280;20358;50.272;19.026;2023-09-07T15:53:43;99057.47;;;28.04;37.02
34081;BME280;20358;50.272;19.026;2023-09-07T15:56:49;99049.06;;;27.99;36.85
34081;BME280;20358;50.272;19.026;2023-09-07T16:00:06;99050.72;;;28.00;37.00
34081;BME280;20358;50.272;19.026;2023-09-07T16:03:13;99061.84;;;28.13;37.21
34081;BME280;20358;50.272;19.026;2023-09-07T16:06:21;99059.13;;;28.37;37.17
34081;BME280;20358;50.272;19.026;2023-09-07T16:09:34;99056.38;;;28.61;36.94
34081;BME280;20358;50.272;19.026;2023-09-07T16:12:41;99048.94;;;28.79;36.69
34081;BME280;20358;50.272;19.026;2023-09-07T16:15:47;99056.28;;;28.94;36.67
34081;BME280;20358;50.272;19.026;2023-09-07T16:18:54;99058.13;;;29.01;36.41
34081;BME280;20358;50.272;19.026;2023-09-07T16:22:00;99053.91;;;28.99;36.46
34081;BME280;20358;50.272;19.026;2023-09-07T16:25:12;99053.59;;;28.94;36.54
34081;BME280;20358;50.272;19.026;2023-09-07T16:28:18;99060.03;;;28.84;36.76
34081;BME280;20358;50.272;19.026;2023-09-07T16:31:25;99055.38;;;28.70;36.91
34081;BME280;20358;50.272;19.026;2023-09-07T16:34:32;99059.22;;;28.60;37.09
34081;BME280;20358;50.272;19.026;2023-09-07T16:37:39;99063.47;;;28.46;37.33
34081;BME280;20358;50.272;19.026;2023-09-07T16:40:48;99064.84;;;28.34;37.51
34081;BME280;20358;50.272;19.026;2023-09-07T16:43:55;99062.66;;;28.21;37.91
34081;BME280;20358;50.272;19.026;2023-09-07T16:47:02;99064.69;;;28.11;38.26
34081;BME280;20358;50.272;19.026;2023-09-07T16:50:10;99063.50;;;27.98;38.85
34081;BME280;20358;50.272;19.026;2023-09-07T16:53:16;99061.97;;;27.87;39.04
34081;BME280;20358;50.272;19.026;2023-09-07T16:56:26;99057.09;;;27.75;39.55
34081;BME280;20358;50.272;19.026;2023-09-07T16:59:34;99062.44;;;27.58;39.62
34081;BME280;20358;50.272;19.026;2023-09-07T17:02:59;99060.41;;;27.44;40.04
34081;BME280;20358;50.272;19.026;2023-09-07T17:06:07;99064.38;;;27.32;40.36